sensor_id;sensor_type;location;lat;lon;timestamp;P1;durP1;ratioP1;P2;durP2;ratioP2
15669;SDS011;18524;45.190;5.732;2024-02-23T00:04:15;1.90;;;0.80;;
15669;SDS011;18524;45.190;5.732;2024-02-23T00:09:06;1.00;;;0.70;;
15669;SDS011;18524;45.190;5.732;2024-02-23T00:13:56;0.90;;;0.70;;
15669;SDS011;18524;45.190;5.732;2024-02-23T00:18:46;0.57;;;0.50;;
15669;SDS011;18524;45.190;5.732;2024-02-23T00:23:37;0.80;;;0.40;;
15669;SDS011;18524;45.190;5.732;2024-02-23T00:28:27;0.77;;;0.40;;
15669;SDS011;18524;45.190;5.732;2024-02-23T00:33:17;0.77;;;0.57;;
15669;SDS011;18524;45.190;5.732;2024-02-23T00:38:08;1.00;;;0.57;;
15669;SDS011;18524;45.190;5.732;2024-02-23T00:42:58;1.10;;;0.63;;
15669;SDS011;18524;45.190;5.732;2024-02-23T00:47:50;1.50;;;0.67;;
15669;SDS011;18524;45.190;5.732;2024-02-23T00:52:40;1.23;;;0.70;;
15669;SDS011;18524;45.190;5.732;2024-02-23T00:57:31;1.43;;;0.80;;
15669;SDS011;18524;45.190;5.732;2024-02-23T01:02:21;1.77;;;0.70;;
15669;SDS011;18524;45.190;5.732;2024-02-23T01:07:12;1.87;;;0.60;;
15669;SDS011;18524;45.190;5.732;2024-02-23T01:12:02;0.57;;;0.40;;
15669;SDS011;18524;45.190;5.732;2024-02-23T01:16:53;0.60;;;0.30;;
15669;SDS011;18524;45.190;5.732;2024-02-23T01:21:43;1.00;;;0.50;;
15669;SDS011;18524;45.190;5.732;2024-02-23T01:26:33;0.90;;;0.50;;
15669;SDS011;18524;45.190;5.732;2024-02-23T01:31:24;2.10;;;1.90;;
15669;SDS011;18524;45.190;5.732;2024-02-23T01:36:14;1.43;;;1.20;;
15669;SDS011;18524;45.190;5.732;2024-02-23T01:41:05;1.33;;;0.90;;
15669;SDS011;18524;45.190;5.732;2024-02-23T01:45:56;0.70;;;0.50;;
15669;SDS011;18524;45.190;5.732;2024-02-23T01:50:46;0.30;;;0.20;;
15669;SDS011;18524;45.190;5.732;2024-02-23T01:55:37;0.53;;;0.10;;
15669;SDS011;18524;45.190;5.732;2024-02-23T02:00:30;0.20;;;0.10;;
15669;SDS011;18524;45.190;5.732;2024-02-23T02:05:21;0.83;;;0.20;;
15669;SDS011;18524;45.190;5.732;2024-02-23T02:10:11;0.37;;;0.30;;
15669;SDS011;18524;45.190;5.732;2024-02-23T02:15:03;0.70;;;0.50;;
15669;SDS011;18524;45.190;5.732;2024-02-23T02:19:54;1.40;;;0.50;;
15669;SDS011;18524;45.190;5.732;2024-02-23T02:24:44;0.50;;;0.30;;
15669;SDS011;18524;45.190;5.732;2024-02-23T02:29:36;1.07;;;0.30;;
15669;SDS011;18524;45.190;5.732;2024-02-23T02:34:27;1.37;;;0.30;;
15669;SDS011;18524;45.190;5.732;2024-02-23T02:39:18;0.20;;;0.20;;
15669;SDS011;18524;45.190;5.732;2024-02-23T02:44:09;0.80;;;0.30;;
15669;SDS011;18524;45.190;5.732;2024-02-23T02:48:59;0.17;;;0.10;;
15669;SDS011;18524;45.190;5.732;2024-02-23T02:53:49;0.47;;;0.20;;
15669;SDS011;18524;45.190;5.732;2024-02-23T02:58:40;0.63;;;0.10;;
15669;SDS011;18524;45.190;5.732;2024-02-23T03:03:30;0.43;;;0.20;;
15669;SDS011;18524;45.190;5.732;2024-02-23T03:08:20;0.10;;;0.10;;
15669;SDS011;18524;45.190;5.732;2024-02-23T03:13:11;0.40;;;0.30;;
15669;SDS011;18524;45.190;5.732;2024-02-23T03:18:02;0.43;;;0.40;;
15669;SDS011;18524;45.190;5.732;2024-02-23T03:22:52;0.30;;;0.20;;
15669;SDS011;18524;45.190;5.732;2024-02-23T03:27:42;1.23;;;0.30;;
15669;SDS011;18524;45.190;5.732;2024-02-23T03:32:33;0.33;;;0.20;;
15669;SDS011;18524;45.190;5.732;2024-02-23T03:37:26;0.40;;;0.10;;
15669;SDS011;18524;45.190;5.732;2024-02-23T03:42:16;0.60;;;0.20;;
15669;SDS011;18524;45.190;5.732;2024-02-23T03:47:07;0.20;;;0.10;;
15669;SDS011;18524;45.190;5.732;2024-02-23T03:51:57;0.20;;;0.10;;
15669;SDS011;18524;45.190;5.732;2024-02-23T03:56:47;0.20;;;0.00;;
15669;SDS011;18524;45.190;5.732;2024-02-23T04:01:38;0.13;;;0.10;;
15669;SDS011;18524;45.190;5.732;2024-02-23T04:06:29;0.40;;;0.10;;
15669;SDS011;18524;45.190;5.732;2024-02-23T04:11:19;0.33;;;0.20;;
15669;SDS011;18524;45.190;5.732;2024-02-23T04:16:10;0.33;;;0.10;;
15669;SDS011;18524;45.190;5.732;2024-02-23T04:21:00;0.40;;;0.17;;
15669;SDS011;18524;45.190;5.732;2024-02-23T04:25:50;0.50;;;0.13;;
15669;SDS011;18524;45.190;5.732;2024-02-23T04:30:41;0.50;;;0.20;;
15669;SDS011;18524;45.190;5.732;2024-02-23T04:35:31;0.30;;;0.10;;
15669;SDS011;18524;45.190;5.732;2024-02-23T04:40:21;0.63;;;0.10;;
15669;SDS011;18524;45.190;5.732;2024-02-23T04:45:12;0.87;;;0.30;;
15669;SDS011;18524;45.190;5.732;2024-02-23T04:50:02;0.70;;;0.20;;
15669;SDS011;18524;45.190;5.732;2024-02-23T04:54:53;1.00;;;0.20;;
15669;SDS011;18524;45.190;5.732;2024-02-23T04:59:43;0.70;;;0.20;;
15669;SDS011;18524;45.190;5.732;2024-02-23T05:04:34;0.73;;;0.20;;
15669;SDS011;18524;45.190;5.732;2024-02-23T05:09:24;1.20;;;0.40;;
15669;SDS011;18524;45.190;5.732;2024-02-23T05:14:14;1.00;;;0.30;;
15669;SDS011;18524;45.190;5.732;2024-02-23T05:19:05;0.60;;;0.20;;
15669;SDS011;18524;45.190;5.732;2024-02-23T05:23:55;0.33;;;0.23;;
15669;SDS011;18524;45.190;5.732;2024-02-23T05:28:46;0.73;;;0.30;;
15669;SDS011;18524;45.190;5.732;2024-02-23T05:33:36;0.60;;;0.30;;
15669;SDS011;18524;45.190;5.732;2024-02-23T05:38:28;0.87;;;0.40;;
15669;SDS011;18524;45.190;5.732;2024-02-23T05:43:18;1.63;;;0.40;;
15669;SDS011;18524;45.190;5.732;2024-02-23T05:48:09;0.80;;;0.57;;
15669;SDS011;18524;45.190;5.732;2024-02-23T05:52:59;0.63;;;0.30;;
15669;SDS011;18524;45.190;5.732;2024-02-23T05:57:49;1.03;;;0.23;;
15669;SDS011;18524;45.190;5.732;2024-02-23T06:02:40;1.20;;;0.50;;
15669;SDS011;18524;45.190;5.732;2024-02-23T06:07:31;0.60;;;0.40;;
15669;SDS011;18524;45.190;5.732;2024-02-23T06:12:22;1.47;;;0.40;;
15669;SDS011;18524;45.190;5.732;2024-02-23T06:17:13;1.60;;;0.40;;
15669;SDS011;18524;45.190;5.732;2024-02-23T06:22:03;2.73;;;0.50;;
15669;SDS011;18524;45.190;5.732;2024-02-23T06:26:54;1.80;;;0.80;;
15669;SDS011;18524;45.190;5.732;2024-02-23T06:31:44;1.67;;;0.80;;
15669;SDS011;18524;45.190;5.732;2024-02-23T06:36:38;1.20;;;0.70;;
15669;SDS011;18524;45.190;5.732;2024-02-23T06:41:29;1.33;;;0.90;;
15669;SDS011;18524;45.190;5.732;2024-02-23T06:46:19;2.67;;;1.00;;
15669;SDS011;18524;45.190;5.732;2024-02-23T06:51:11;1.80;;;1.27;;
15669;SDS011;18524;45.190;5.732;2024-02-23T06:56:01;2.07;;;1.40;;
15669;SDS011;18524;45.190;5.732;2024-02-23T07:00:52;1.53;;;1.40;;
15669;SDS011;18524;45.190;5.732;2024-02-23T07:05:42;2.43;;;1.13;;
15669;SDS011;18524;45.190;5.732;2024-02-23T07:10:33;1.50;;;1.20;;
15669;SDS011;18524;45.190;5.732;2024-02-23T07:15:23;1.73;;;1.30;;
15669;SDS011;18524;45.190;5.732;2024-02-23T07:20:14;3.17;;;1.47;;
15669;SDS011;18524;45.190;5.732;2024-02-23T07:25:05;1.93;;;1.53;;
15669;SDS011;18524;45.190;5.732;2024-02-23T07:29:56;3.53;;;1.50;;
15669;SDS011;18524;45.190;5.732;2024-02-23T07:34:46;2.83;;;1.03;;
15669;SDS011;18524;45.190;5.732;2024-02-23T07:39:37;1.80;;;0.87;;
15669;SDS011;18524;45.190;5.732;2024-02-23T07:44:28;2.53;;;1.70;;
15669;SDS011;18524;45.190;5.732;2024-02-23T07:49:18;2.63;;;2.33;;
15669;SDS011;18524;45.190;5.732;2024-02-23T07:54:09;4.37;;;2.67;;
15669;SDS011;18524;45.190;5.732;2024-02-23T07:58:59;3.60;;;2.87;;
15669;SDS011;18524;45.190;5.732;2024-02-23T08:03:50;4.53;;;2.20;;
15669;SDS011;18524;45.190;5.732;2024-02-23T08:08:40;2.00;;;1.50;;
15669;SDS011;18524;45.190;5.732;2024-02-23T08:13:30;4.17;;;2.80;;
15669;SDS011;18524;45.190;5.732;2024-02-23T08:18:21;2.70;;;2.30;;
15669;SDS011;18524;45.190;5.732;2024-02-23T08:23:14;2.70;;;2.13;;
15669;SDS011;18524;45.190;5.732;2024-02-23T08:28:04;2.00;;;1.80;;
15669;SDS011;18524;45.190;5.732;2024-02-23T08:32:55;4.50;;;2.87;;
15669;SDS011;18524;45.190;5.732;2024-02-23T08:37:45;3.13;;;2.60;;
15669;SDS011;18524;45.190;5.732;2024-02-23T08:42:36;3.50;;;2.40;;
15669;SDS011;18524;45.190;5.732;2024-02-23T08:47:26;3.10;;;2.80;;
15669;SDS011;18524;45.190;5.732;2024-02-23T08:52:21;4.93;;;4.43;;
15669;SDS011;18524;45.190;5.732;2024-02-23T08:57:12;5.87;;;5.33;;
15669;SDS011;18524;45.190;5.732;2024-02-23T09:02:07;5.10;;;4.70;;
15669;SDS011;18524;45.190;5.732;2024-02-23T09:06:57;5.43;;;5.00;;
15669;SDS011;18524;45.190;5.732;2024-02-23T09:11:48;4.20;;;3.80;;
15669;SDS011;18524;45.190;5.732;2024-02-23T09:16:39;7.77;;;6.97;;
15669;SDS011;18524;45.190;5.732;2024-02-23T09:21:29;9.03;;;7.37;;
15669;SDS011;18524;45.190;5.732;2024-02-23T09:26:19;9.17;;;8.27;;
15669;SDS011;18524;45.190;5.732;2024-02-23T09:31:10;8.73;;;7.90;;
15669;SDS011;18524;45.190;5.732;2024-02-23T09:36:01;4.73;;;4.33;;
15669;SDS011;18524;45.190;5.732;2024-02-23T09:40:51;1.77;;;1.37;;
15669;SDS011;18524;45.190;5.732;2024-02-23T09:45:42;3.33;;;1.30;;
15669;SDS011;18524;45.190;5.732;2024-02-23T09:50:32;1.27;;;1.10;;
15669;SDS011;18524;45.190;5.732;2024-02-23T09:55:23;1.83;;;1.10;;
15669;SDS011;18524;45.190;5.732;2024-02-23T10:00:17;0.93;;;0.63;;
15669;SDS011;18524;45.190;5.732;2024-02-23T10:05:07;3.07;;;0.77;;
15669;SDS011;18524;45.190;5.732;2024-02-23T10:10:00;1.93;;;1.20;;
15669;SDS011;18524;45.190;5.732;2024-02-23T10:14:51;1.37;;;0.70;;
15669;SDS011;18524;45.190;5.732;2024-02-23T10:19:44;1.10;;;0.87;;
15669;SDS011;18524;45.190;5.732;2024-02-23T10:24:34;1.40;;;1.03;;
15669;SDS011;18524;45.190;5.732;2024-02-23T10:29:27;1.87;;;0.80;;
15669;SDS011;18524;45.190;5.732;2024-02-23T10:34:17;1.70;;;1.33;;
15669;SDS011;18524;45.190;5.732;2024-02-23T10:39:09;1.90;;;1.10;;
15669;SDS011;18524;45.190;5.732;2024-02-23T10:44:01;1.97;;;1.30;;
15669;SDS011;18524;45.190;5.732;2024-02-23T10:48:53;1.80;;;1.00;;
15669;SDS011;18524;45.190;5.732;2024-02-23T10:53:44;1.93;;;1.30;;
15669;SDS011;18524;45.190;5.732;2024-02-23T10:58:36;2.30;;;1.30;;
15669;SDS011;18524;45.190;5.732;2024-02-23T11:03:29;2.30;;;1.30;;
15669;SDS011;18524;45.190;5.732;2024-02-23T11:08:21;1.57;;;1.10;;
15669;SDS011;18524;45.190;5.732;2024-02-23T11:13:12;1.87;;;1.10;;
15669;SDS011;18524;45.190;5.732;2024-02-23T11:18:02;1.43;;;0.80;;
15669;SDS011;18524;45.190;5.732;2024-02-23T11:22:54;2.03;;;0.70;;
15669;SDS011;18524;45.190;5.732;2024-02-23T11:27:44;2.87;;;1.30;;
15669;SDS011;18524;45.190;5.732;2024-02-23T11:32:40;1.87;;;1.03;;
15669;SDS011;18524;45.190;5.732;2024-02-23T11:37:53;1.67;;;0.97;;
15669;SDS011;18524;45.190;5.732;2024-02-23T11:42:51;2.20;;;0.77;;
15669;SDS011;18524;45.190;5.732;2024-02-23T11:47:42;2.23;;;1.10;;
15669;SDS011;18524;45.190;5.732;2024-02-23T11:52:32;1.77;;;0.80;;
15669;SDS011;18524;45.190;5.732;2024-02-23T11:57:23;1.90;;;1.70;;
15669;SDS011;18524;45.190;5.732;2024-02-23T12:02:14;1.40;;;0.90;;
15669;SDS011;18524;45.190;5.732;2024-02-23T12:07:04;1.77;;;0.43;;
15669;SDS011;18524;45.190;5.732;2024-02-23T12:11:55;1.27;;;0.63;;
15669;SDS011;18524;45.190;5.732;2024-02-23T12:16:45;1.40;;;0.50;;
15669;SDS011;18524;45.190;5.732;2024-02-23T12:21:35;0.90;;;0.30;;
15669;SDS011;18524;45.190;5.732;2024-02-23T12:26:26;0.63;;;0.30;;
15669;SDS011;18524;45.190;5.732;2024-02-23T12:31:16;1.27;;;0.40;;
15669;SDS011;18524;45.190;5.732;2024-02-23T12:36:14;1.30;;;0.60;;
15669;SDS011;18524;45.190;5.732;2024-02-23T12:41:05;1.90;;;0.50;;
15669;SDS011;18524;45.190;5.732;2024-02-23T12:45:55;0.43;;;0.33;;
15669;SDS011;18524;45.190;5.732;2024-02-23T12:50:47;2.13;;;0.63;;
15669;SDS011;18524;45.190;5.732;2024-02-23T12:55:38;1.93;;;0.60;;
15669;SDS011;18524;45.190;5.732;2024-02-23T13:00:29;0.90;;;0.57;;
15669;SDS011;18524;45.190;5.732;2024-02-23T13:05:19;1.73;;;0.70;;
15669;SDS011;18524;45.190;5.732;2024-02-23T13:10:09;1.90;;;0.70;;
15669;SDS011;18524;45.190;5.732;2024-02-23T13:15:00;2.33;;;0.90;;
15669;SDS011;18524;45.190;5.732;2024-02-23T13:19:50;1.27;;;0.50;;
15669;SDS011;18524;45.190;5.732;2024-02-23T13:24:41;0.77;;;0.40;;
15669;SDS011;18524;45.190;5.732;2024-02-23T13:29:33;0.50;;;0.30;;
15669;SDS011;18524;45.190;5.732;2024-02-23T13:34:23;1.57;;;0.80;;
15669;SDS011;18524;45.190;5.732;2024-02-23T13:39:14;1.53;;;1.10;;
15669;SDS011;18524;45.190;5.732;2024-02-23T13:44:04;1.23;;;0.60;;
15669;SDS011;18524;45.190;5.732;2024-02-23T13:49:02;1.17;;;0.50;;
15669;SDS011;18524;45.190;5.732;2024-02-23T13:53:54;0.83;;;0.40;;
15669;SDS011;18524;45.190;5.732;2024-02-23T13:58:44;0.67;;;0.40;;
15669;SDS011;18524;45.190;5.732;2024-02-23T14:03:36;1.33;;;0.40;;
15669;SDS011;18524;45.190;5.732;2024-02-23T14:08:26;1.33;;;0.40;;
15669;SDS011;18524;45.190;5.732;2024-02-23T14:13:17;0.77;;;0.33;;
15669;SDS011;18524;45.190;5.732;2024-02-23T14:18:07;1.33;;;0.50;;
15669;SDS011;18524;45.190;5.732;2024-02-23T14:22:57;1.50;;;0.60;;
15669;SDS011;18524;45.190;5.732;2024-02-23T14:27:48;0.93;;;0.50;;
15669;SDS011;18524;45.190;5.732;2024-02-23T14:32:38;1.63;;;0.40;;
15669;SDS011;18524;45.190;5.732;2024-02-23T14:37:30;0.97;;;0.47;;
15669;SDS011;18524;45.190;5.732;2024-02-23T14:42:20;0.97;;;0.40;;
15669;SDS011;18524;45.190;5.732;2024-02-23T14:47:11;1.10;;;0.33;;
15669;SDS011;18524;45.190;5.732;2024-02-23T14:52:03;1.13;;;0.50;;
15669;SDS011;18524;45.190;5.732;2024-02-23T14:56:54;0.93;;;0.40;;
15669;SDS011;18524;45.190;5.732;2024-02-23T15:01:44;0.90;;;0.40;;
15669;SDS011;18524;45.190;5.732;2024-02-23T15:06:35;1.67;;;0.40;;
15669;SDS011;18524;45.190;5.732;2024-02-23T15:11:27;1.97;;;0.50;;
15669;SDS011;18524;45.190;5.732;2024-02-23T15:16:17;1.70;;;0.50;;
15669;SDS011;18524;45.190;5.732;2024-02-23T15:21:08;1.53;;;0.40;;
15669;SDS011;18524;45.190;5.732;2024-02-23T15:25:58;1.03;;;0.50;;
15669;SDS011;18524;45.190;5.732;2024-02-23T15:30:49;2.20;;;0.50;;
15669;SDS011;18524;45.190;5.732;2024-02-23T15:35:40;2.47;;;0.40;;
15669;SDS011;18524;45.190;5.732;2024-02-23T15:40:30;1.97;;;0.50;;
15669;SDS011;18524;45.190;5.732;2024-02-23T15:45:21;0.50;;;0.40;;
15669;SDS011;18524;45.190;5.732;2024-02-23T15:50:11;1.73;;;0.60;;
15669;SDS011;18524;45.190;5.732;2024-02-23T15:55:01;0.87;;;0.23;;
15669;SDS011;18524;45.190;5.732;2024-02-23T15:59:52;0.20;;;0.20;;
15669;SDS011;18524;45.190;5.732;2024-02-23T16:04:43;0.50;;;0.40;;
15669;SDS011;18524;45.190;5.732;2024-02-23T16:09:33;0.60;;;0.30;;
15669;SDS011;18524;45.190;5.732;2024-02-23T16:14:24;1.77;;;0.50;;
15669;SDS011;18524;45.190;5.732;2024-02-23T16:19:14;0.70;;;0.43;;
15669;SDS011;18524;45.190;5.732;2024-02-23T16:24:05;1.17;;;0.40;;
15669;SDS011;18524;45.190;5.732;2024-02-23T16:28:55;1.03;;;0.50;;
15669;SDS011;18524;45.190;5.732;2024-02-23T16:33:48;0.70;;;0.30;;
15669;SDS011;18524;45.190;5.732;2024-02-23T16:38:38;0.97;;;0.50;;
15669;SDS011;18524;45.190;5.732;2024-02-23T16:43:30;1.33;;;0.50;;
15669;SDS011;18524;45.190;5.732;2024-02-23T16:48:20;1.47;;;0.43;;
15669;SDS011;18524;45.190;5.732;2024-02-23T16:53:11;0.70;;;0.33;;
15669;SDS011;18524;45.190;5.732;2024-02-23T16:58:01;0.83;;;0.50;;
15669;SDS011;18524;45.190;5.732;2024-02-23T17:02:52;1.17;;;0.60;;
15669;SDS011;18524;45.190;5.732;2024-02-23T17:07:44;2.87;;;0.80;;
15669;SDS011;18524;45.190;5.732;2024-02-23T17:12:34;1.20;;;0.60;;
15669;SDS011;18524;45.190;5.732;2024-02-23T17:17:25;0.90;;;0.43;;
15669;SDS011;18524;45.190;5.732;2024-02-23T17:22:15;1.63;;;0.70;;
15669;SDS011;18524;45.190;5.732;2024-02-23T17:27:06;2.10;;;1.20;;
15669;SDS011;18524;45.190;5.732;2024-02-23T17:31:57;2.60;;;1.10;;
15669;SDS011;18524;45.190;5.732;2024-02-23T17:36:47;3.13;;;1.00;;
15669;SDS011;18524;45.190;5.732;2024-02-23T17:41:38;1.90;;;1.20;;
15669;SDS011;18524;45.190;5.732;2024-02-23T17:46:29;2.20;;;1.03;;
15669;SDS011;18524;45.190;5.732;2024-02-23T17:51:20;2.07;;;1.30;;
15669;SDS011;18524;45.190;5.732;2024-02-23T17:56:10;2.73;;;1.60;;
15669;SDS011;18524;45.190;5.732;2024-02-23T18:01:01;2.73;;;1.70;;
15669;SDS011;18524;45.190;5.732;2024-02-23T18:05:52;2.23;;;1.50;;
15669;SDS011;18524;45.190;5.732;2024-02-23T18:10:43;2.90;;;1.50;;
15669;SDS011;18524;45.190;5.732;2024-02-23T18:15:33;3.00;;;2.00;;
15669;SDS011;18524;45.190;5.732;2024-02-23T18:20:23;3.80;;;2.00;;
15669;SDS011;18524;45.190;5.732;2024-02-23T18:25:14;2.70;;;1.90;;
15669;SDS011;18524;45.190;5.732;2024-02-23T18:30:05;2.50;;;1.50;;
15669;SDS011;18524;45.190;5.732;2024-02-23T18:34:56;1.90;;;1.53;;
15669;SDS011;18524;45.190;5.732;2024-02-23T18:39:46;3.17;;;1.70;;
15669;SDS011;18524;45.190;5.732;2024-02-23T18:44:37;4.10;;;2.10;;
15669;SDS011;18524;45.190;5.732;2024-02-23T18:49:27;4.23;;;2.47;;
15669;SDS011;18524;45.190;5.732;2024-02-23T18:54:21;4.83;;;2.80;;
15669;SDS011;18524;45.190;5.732;2024-02-23T18:59:11;5.60;;;2.63;;
15669;SDS011;18524;45.190;5.732;2024-02-23T19:04:02;7.37;;;3.20;;
15669;SDS011;18524;45.190;5.732;2024-02-23T19:08:52;5.03;;;3.20;;
15669;SDS011;18524;45.190;5.732;2024-02-23T19:13:43;6.47;;;3.13;;
15669;SDS011;18524;45.190;5.732;2024-02-23T19:18:33;5.17;;;3.13;;
15669;SDS011;18524;45.190;5.732;2024-02-23T19:23:23;3.67;;;3.03;;
15669;SDS011;18524;45.190;5.732;2024-02-23T19:28:14;3.83;;;3.00;;
15669;SDS011;18524;45.190;5.732;2024-02-23T19:33:04;2.93;;;2.63;;
15669;SDS011;18524;45.190;5.732;2024-02-23T19:37:54;3.93;;;2.47;;
15669;SDS011;18524;45.190;5.732;2024-02-23T19:42:45;3.10;;;2.80;;
15669;SDS011;18524;45.190;5.732;2024-02-23T19:47:35;5.00;;;3.50;;
15669;SDS011;18524;45.190;5.732;2024-02-23T19:52:26;5.60;;;3.90;;
15669;SDS011;18524;45.190;5.732;2024-02-23T19:57:19;5.87;;;4.23;;
15669;SDS011;18524;45.190;5.732;2024-02-23T20:02:09;6.10;;;4.23;;
15669;SDS011;18524;45.190;5.732;2024-02-23T20:07:02;4.70;;;3.63;;
15669;SDS011;18524;45.190;5.732;2024-02-23T20:11:56;6.57;;;4.13;;
15669;SDS011;18524;45.190;5.732;2024-02-23T20:16:46;4.43;;;3.40;;
15669;SDS011;18524;45.190;5.732;2024-02-23T20:21:40;5.37;;;3.67;;
15669;SDS011;18524;45.190;5.732;2024-02-23T20:26:30;6.17;;;3.70;;
15669;SDS011;18524;45.190;5.732;2024-02-23T20:31:21;3.80;;;2.93;;
15669;SDS011;18524;45.190;5.732;2024-02-23T20:36:11;4.10;;;2.80;;
15669;SDS011;18524;45.190;5.732;2024-02-23T20:41:02;3.77;;;3.00;;
15669;SDS011;18524;45.190;5.732;2024-02-23T20:45:52;2.10;;;1.90;;
15669;SDS011;18524;45.190;5.732;2024-02-23T20:50:43;3.10;;;2.20;;
15669;SDS011;18524;45.190;5.732;2024-02-23T20:55:33;4.20;;;2.87;;
15669;SDS011;18524;45.190;5.732;2024-02-23T21:00:24;3.57;;;2.43;;
15669;SDS011;18524;45.190;5.732;2024-02-23T21:05:15;5.40;;;3.47;;
15669;SDS011;18524;45.190;5.732;2024-02-23T21:10:08;2.70;;;1.70;;
15669;SDS011;18524;45.190;5.732;2024-02-23T21:14:59;2.73;;;1.93;;
15669;SDS011;18524;45.190;5.732;2024-02-23T21:19:50;2.40;;;1.83;;
15669;SDS011;18524;45.190;5.732;2024-02-23T21:24:40;3.00;;;1.77;;
15669;SDS011;18524;45.190;5.732;2024-02-23T21:29:33;5.60;;;5.00;;
15669;SDS011;18524;45.190;5.732;2024-02-23T21:34:23;5.63;;;4.83;;
15669;SDS011;18524;45.190;5.732;2024-02-23T21:39:13;3.70;;;2.40;;
15669;SDS011;18524;45.190;5.732;2024-02-23T21:44:04;5.80;;;3.07;;
15669;SDS011;18524;45.190;5.732;2024-02-23T21:48:55;5.23;;;2.40;;
15669;SDS011;18524;45.190;5.732;2024-02-23T21:53:46;4.40;;;2.60;;
15669;SDS011;18524;45.190;5.732;2024-02-23T21:58:36;3.53;;;2.53;;
15669;SDS011;18524;45.190;5.732;2024-02-23T22:03:29;0.90;;;0.63;;
15669;SDS011;18524;45.190;5.732;2024-02-23T22:08:21;2.47;;;1.20;;
15669;SDS011;18524;45.190;5.732;2024-02-23T22:13:12;1.83;;;1.23;;
15669;SDS011;18524;45.190;5.732;2024-02-23T22:18:03;1.30;;;1.10;;
15669;SDS011;18524;45.190;5.732;2024-02-23T22:22:54;0.93;;;0.60;;
15669;SDS011;18524;45.190;5.732;2024-02-23T22:27:45;2.03;;;0.57;;
15669;SDS011;18524;45.190;5.732;2024-02-23T22:32:35;1.10;;;0.70;;
15669;SDS011;18524;45.190;5.732;2024-02-23T22:37:26;0.87;;;0.60;;
15669;SDS011;18524;45.190;5.732;2024-02-23T22:42:16;1.43;;;1.20;;
15669;SDS011;18524;45.190;5.732;2024-02-23T22:47:07;1.00;;;0.70;;
15669;SDS011;18524;45.190;5.732;2024-02-23T22:51:57;1.30;;;0.50;;
15669;SDS011;18524;45.190;5.732;2024-02-23T22:56:47;1.07;;;0.60;;
15669;SDS011;18524;45.190;5.732;2024-02-23T23:01:38;0.63;;;0.40;;
15669;SDS011;18524;45.190;5.732;2024-02-23T23:06:29;0.30;;;0.30;;
15669;SDS011;18524;45.190;5.732;2024-02-23T23:11:20;0.63;;;0.27;;
15669;SDS011;18524;45.190;5.732;2024-02-23T23:16:10;1.27;;;0.40;;
15669;SDS011;18524;45.190;5.732;2024-02-23T23:21:01;1.20;;;0.33;;
15669;SDS011;18524;45.190;5.732;2024-02-23T23:25:52;1.90;;;0.40;;
15669;SDS011;18524;45.190;5.732;2024-02-23T23:30:43;0.50;;;0.30;;
15669;SDS011;18524;45.190;5.732;2024-02-23T23:35:33;0.47;;;0.30;;
15669;SDS011;18524;45.190;5.732;2024-02-23T23:40:23;0.60;;;0.40;;
15669;SDS011;18524;45.190;5.732;2024-02-23T23:45:14;0.43;;;0.20;;
15669;SDS011;18524;45.190;5.732;2024-02-23T23:50:05;0.47;;;0.30;;
15669;SDS011;18524;45.190;5.732;2024-02-23T23:54:56;0.60;;;0.30;;
15669;SDS011;18524;45.190;5.732;2024-02-23T23:59:46;0.50;;;0.30;;
